sensor_id;sensor_type;location;lat;lon;timestamp;pressure;altitude;pressure_sealevel;temperature;humidity
43153;BME280;28756;49.064;9.290;2023-02-04T00:01:08;100320.53;;;6.30;100.00
43153;BME280;28756;49.064;9.290;2023-02-04T00:03:33;100323.97;;;6.31;100.00
43153;BME280;28756;49.064;9.290;2023-02-04T00:05:59;100322.25;;;6.30;100.00
43153;BME280;28756;49.064;9.290;2023-02-04T00:08:25;100324.13;;;6.20;100.00
43153;BME280;28756;49.064;9.290;2023-02-04T00:10:50;100329.34;;;6.17;100.00
43153;BME280;28756;49.064;9.290;2023-02-04T00:13:16;100338.03;;;6.13;100.00
43153;BME280;28756;49.064;9.290;2023-02-04T00:15:42;100344.19;;;6.04;100.00
43153;BME280;28756;49.064;9.290;2023-02-04T00:18:07;100354.59;;;5.98;100.00
43153;BME280;28756;49.064;9.290;2023-02-04T00:20:34;100349.50;;;5.93;100.00
43153;BME280;28756;49.064;9.290;2023-02-04T00:23:02;100348.72;;;5.87;100.00
43153;BME280;28756;49.064;9.290;2023-02-04T00:25:28;100354.75;;;5.85;100.00
43153;BME280;28756;49.064;9.290;2023-02-04T00:27:54;100353.97;;;5.82;100.00
43153;BME280;28756;49.064;9.290;2023-02-04T00:30:20;100360.81;;;5.83;100.00
43153;BME280;28756;49.064;9.290;2023-02-04T00:32:48;100360.88;;;5.80;100.00
43153;BME280;28756;49.064;9.290;2023-02-04T00:35:15;100367.75;;;5.79;100.00
43153;BME280;28756;49.064;9.290;2023-02-04T00:37:41;100366.06;;;5.78;100.00
43153;BME280;28756;49.064;9.290;2023-02-04T00:40:08;100374.72;;;5.74;100.00
43153;BME280;28756;49.064;9.290;2023-02-04T00:42:34;100374.72;;;5.74;100.00
43153;BME280;28756;49.064;9.290;2023-02-04T00:44:59;100368.69;;;5.74;100.00
43153;BME280;28756;49.064;9.290;2023-02-04T00:47:25;100367.84;;;5.73;100.00
43153;BME280;28756;49.064;9.290;2023-02-04T00:49:51;100373.84;;;5.75;100.00
43153;BME280;28756;49.064;9.290;2023-02-04T00:52:16;100384.19;;;5.75;100.00
43153;BME280;28756;49.064;9.290;2023-02-04T00:54:42;100385.97;;;5.72;100.00
43153;BME280;28756;49.064;9.290;2023-02-04T00:57:08;100390.28;;;5.69;100.00
43153;BME280;28756;49.064;9.290;2023-02-04T00:59:33;100376.53;;;5.67;100.00
43153;BME280;28756;49.064;9.290;2023-02-04T01:01:59;100383.44;;;5.67;100.00
43153;BME280;28756;49.064;9.290;2023-02-04T01:04:25;100370.53;;;5.67;100.00
43153;BME280;28756;49.064;9.290;2023-02-04T01:06:52;100370.56;;;5.64;100.00
43153;BME280;28756;49.064;9.290;2023-02-04T01:09:18;100371.44;;;5.63;100.00
43153;BME280;28756;49.064;9.290;2023-02-04T01:11:44;100380.03;;;5.63;100.00
43153;BME280;28756;49.064;9.290;2023-02-04T01:14:10;100386.03;;;5.64;100.00
43153;BME280;28756;49.064;9.290;2023-02-04T01:16:35;100397.25;;;5.63;100.00
43153;BME280;28756;49.064;9.290;2023-02-04T01:19:01;100387.78;;;5.63;100.00
43153;BME280;28756;49.064;9.290;2023-02-04T01:21:27;100385.19;;;5.65;100.00
43153;BME280;28756;49.064;9.290;2023-02-04T01:23:53;100388.66;;;5.61;100.00
43153;BME280;28756;49.064;9.290;2023-02-04T01:26:19;100387.75;;;5.65;100.00
43153;BME280;28756;49.064;9.290;2023-02-04T01:28:45;100391.19;;;5.65;100.00
43153;BME280;28756;49.064;9.290;2023-02-04T01:31:11;100388.63;;;5.64;100.00
43153;BME280;28756;49.064;9.290;2023-02-04T01:33:37;100386.00;;;5.65;100.00
43153;BME280;28756;49.064;9.290;2023-02-04T01:36:03;100387.66;;;5.71;100.00
43153;BME280;28756;49.064;9.290;2023-02-04T01:38:29;100378.22;;;5.72;100.00
43153;BME280;28756;49.064;9.290;2023-02-04T01:40:55;100386.78;;;5.72;100.00
43153;BME280;28756;49.064;9.290;2023-02-04T01:43:22;100397.09;;;5.74;100.00
43153;BME280;28756;49.064;9.290;2023-02-04T01:45:49;100397.94;;;5.76;100.00
43153;BME280;28756;49.064;9.290;2023-02-04T01:48:18;100399.69;;;5.74;100.00
43153;BME280;28756;49.064;9.290;2023-02-04T01:50:51;100404.84;;;5.74;100.00
43153;BME280;28756;49.064;9.290;2023-02-04T01:53:22;100402.22;;;5.77;100.00
43153;BME280;28756;49.064;9.290;2023-02-04T01:55:50;100406.50;;;5.79;100.00
43153;BME280;28756;49.064;9.290;2023-02-04T01:58:16;100409.94;;;5.78;100.00
43153;BME280;28756;49.064;9.290;2023-02-04T02:00:43;100427.13;;;5.79;100.00
43153;BME280;28756;49.064;9.290;2023-02-04T02:03:09;100421.13;;;5.79;100.00
43153;BME280;28756;49.064;9.290;2023-02-04T02:05:48;100428.88;;;5.79;100.00
43153;BME280;28756;49.064;9.290;2023-02-04T02:08:16;100417.69;;;5.78;100.00
43153;BME280;28756;49.064;9.290;2023-02-04T02:10:45;100409.06;;;5.79;100.00
43153;BME280;28756;49.064;9.290;2023-02-04T02:13:16;100418.59;;;5.76;100.00
43153;BME280;28756;49.064;9.290;2023-02-04T02:15:44;100421.16;;;5.76;100.00
43153;BME280;28756;49.064;9.290;2023-02-04T02:18:11;100441.88;;;5.71;100.00
43153;BME280;28756;49.064;9.290;2023-02-04T02:20:37;100442.75;;;5.72;100.00
43153;BME280;28756;49.064;9.290;2023-02-04T02:23:47;100432.47;;;5.67;100.00
43153;BME280;28756;49.064;9.290;2023-02-04T02:26:15;100430.75;;;5.64;100.00
43153;BME280;28756;49.064;9.290;2023-02-04T02:28:42;100425.66;;;5.61;100.00
43153;BME280;28756;49.064;9.290;2023-02-04T02:31:08;100435.13;;;5.59;100.00
43153;BME280;28756;49.064;9.290;2023-02-04T02:33:35;100433.41;;;5.58;100.00
43153;BME280;28756;49.064;9.290;2023-02-04T02:36:01;100428.31;;;5.55;100.00
43153;BME280;28756;49.064;9.290;2023-02-04T02:38:27;100428.38;;;5.50;100.00
43153;BME280;28756;49.064;9.290;2023-02-04T02:40:52;100441.28;;;5.49;100.00
43153;BME280;28756;49.064;9.290;2023-02-04T02:43:21;100440.47;;;5.47;100.00
43153;BME280;28756;49.064;9.290;2023-02-04T02:45:49;100441.31;;;5.47;100.00
43153;BME280;28756;49.064;9.290;2023-02-04T02:48:15;100438.72;;;5.47;100.00
43153;BME280;28756;49.064;9.290;2023-02-04T02:50:42;100451.66;;;5.46;100.00
43153;BME280;28756;49.064;9.290;2023-02-04T02:53:17;100445.63;;;5.47;100.00
43153;BME280;28756;49.064;9.290;2023-02-04T02:55:44;100450.75;;;5.48;100.00
43153;BME280;28756;49.064;9.290;2023-02-04T02:58:25;100450.78;;;5.45;100.00
43153;BME280;28756;49.064;9.290;2023-02-04T03:00:53;100449.13;;;5.41;100.00
43153;BME280;28756;49.064;9.290;2023-02-04T03:03:23;100456.00;;;5.39;100.00
43153;BME280;28756;49.064;9.290;2023-02-04T03:05:54;100457.78;;;5.35;100.00
43153;BME280;28756;49.064;9.290;2023-02-04T03:08:22;100457.81;;;5.34;100.00
43153;BME280;28756;49.064;9.290;2023-02-04T03:10:48;100456.91;;;5.36;100.00
43153;BME280;28756;49.064;9.290;2023-02-04T03:13:15;100474.13;;;5.36;100.00
43153;BME280;28756;49.064;9.290;2023-02-04T03:15:43;100469.84;;;5.32;100.00
43153;BME280;28756;49.064;9.290;2023-02-04T03:18:10;100472.47;;;5.29;100.00
43153;BME280;28756;49.064;9.290;2023-02-04T03:20:37;100487.09;;;5.27;100.00
43153;BME280;28756;49.064;9.290;2023-02-04T03:23:03;100484.53;;;5.27;100.00
43153;BME280;28756;49.064;9.290;2023-02-04T03:25:29;100493.13;;;5.29;100.00
43153;BME280;28756;49.064;9.290;2023-02-04T03:27:57;100494.81;;;5.30;100.00
43153;BME280;28756;49.064;9.290;2023-02-04T03:30:24;100498.31;;;5.24;100.00
43153;BME280;28756;49.064;9.290;2023-02-04T03:32:51;100503.50;;;5.18;100.00
43153;BME280;28756;49.064;9.290;2023-02-04T03:35:17;100507.00;;;5.17;100.00
43153;BME280;28756;49.064;9.290;2023-02-04T03:37:44;100509.59;;;5.14;100.00
43153;BME280;28756;49.064;9.290;2023-02-04T03:40:10;100501.03;;;5.09;100.00
43153;BME280;28756;49.064;9.290;2023-02-04T03:42:36;100503.66;;;5.02;100.00
43153;BME280;28756;49.064;9.290;2023-02-04T03:45:02;100508.84;;;4.98;100.00
43153;BME280;28756;49.064;9.290;2023-02-04T03:47:28;100510.63;;;4.93;100.00
43153;BME280;28756;49.064;9.290;2023-02-04T03:49:54;100514.94;;;4.90;100.00
43153;BME280;28756;49.064;9.290;2023-02-04T03:52:20;100521.00;;;4.85;100.00
43153;BME280;28756;49.064;9.290;2023-02-04T03:54:46;100527.06;;;4.78;100.00
43153;BME280;28756;49.064;9.290;2023-02-04T03:57:11;100533.09;;;4.75;100.00
43153;BME280;28756;49.064;9.290;2023-02-04T03:59:37;100541.69;;;4.74;100.00
43153;BME280;28756;49.064;9.290;2023-02-04T04:02:03;100542.56;;;4.74;100.00
43153;BME280;28756;49.064;9.290;2023-02-04T04:04:29;100539.16;;;4.69;100.00
43153;BME280;28756;49.064;9.290;2023-02-04T04:06:55;100533.16;;;4.66;100.00
43153;BME280;28756;49.064;9.290;2023-02-04T04:09:21;100535.78;;;4.63;100.00
43153;BME280;28756;49.064;9.290;2023-02-04T04:11:46;100544.41;;;4.55;100.00
43153;BME280;28756;49.064;9.290;2023-02-04T04:14:12;100545.28;;;4.50;100.00
43153;BME280;28756;49.064;9.290;2023-02-04T04:16:38;100552.16;;;4.48;100.00
43153;BME280;28756;49.064;9.290;2023-02-04T04:19:04;100550.50;;;4.43;100.00
43153;BME280;28756;49.064;9.290;2023-02-04T04:21:29;100557.38;;;4.40;100.00
43153;BME280;28756;49.064;9.290;2023-02-04T04:23:55;100557.41;;;4.34;100.00
43153;BME280;28756;49.064;9.290;2023-02-04T04:26:21;100569.47;;;4.27;100.00
43153;BME280;28756;49.064;9.290;2023-02-04T04:28:47;100575.50;;;4.20;100.00
43153;BME280;28756;49.064;9.290;2023-02-04T04:31:13;100573.78;;;4.16;100.00
43153;BME280;28756;49.064;9.290;2023-02-04T04:33:38;100585.84;;;4.10;100.00
43153;BME280;28756;49.064;9.290;2023-02-04T04:36:05;100583.28;;;4.06;100.00
43153;BME280;28756;49.064;9.290;2023-02-04T04:38:31;100589.31;;;4.02;100.00
43153;BME280;28756;49.064;9.290;2023-02-04T04:40:57;100601.31;;;4.06;100.00
43153;BME280;28756;49.064;9.290;2023-02-04T04:43:23;100600.47;;;4.05;100.00
43153;BME280;28756;49.064;9.290;2023-02-04T04:45:49;100603.88;;;4.01;100.00
43153;BME280;28756;49.064;9.290;2023-02-04T04:48:15;100603.91;;;3.97;100.00
43153;BME280;28756;49.064;9.290;2023-02-04T04:50:40;100594.47;;;3.94;100.00
43153;BME280;28756;49.064;9.290;2023-02-04T04:53:07;100602.22;;;3.92;100.00
43153;BME280;28756;49.064;9.290;2023-02-04T04:55:37;100603.91;;;3.87;100.00
43153;BME280;28756;49.064;9.290;2023-02-04T04:58:04;100608.22;;;3.88;100.00
43153;BME280;28756;49.064;9.290;2023-02-04T05:00:30;100606.50;;;3.86;100.00
43153;BME280;28756;49.064;9.290;2023-02-04T05:02:56;100601.38;;;3.81;100.00
43153;BME280;28756;49.064;9.290;2023-02-04T05:05:22;100603.06;;;3.79;100.00
43153;BME280;28756;49.064;9.290;2023-02-04T05:07:47;100598.81;;;3.75;100.00
43153;BME280;28756;49.064;9.290;2023-02-04T05:10:13;100605.66;;;3.79;100.00
43153;BME280;28756;49.064;9.290;2023-02-04T05:12:39;100603.97;;;3.78;100.00
43153;BME280;28756;49.064;9.290;2023-02-04T05:15:05;100606.56;;;3.73;100.00
43153;BME280;28756;49.064;9.290;2023-02-04T05:17:31;100601.44;;;3.62;100.00
43153;BME280;28756;49.064;9.290;2023-02-04T05:19:57;100609.97;;;3.60;100.00
43153;BME280;28756;49.064;9.290;2023-02-04T05:22:22;100615.16;;;3.57;100.00
43153;BME280;28756;49.064;9.290;2023-02-04T05:24:48;100617.69;;;3.55;100.00
43153;BME280;28756;49.064;9.290;2023-02-04T05:27:14;100613.41;;;3.65;100.00
43153;BME280;28756;49.064;9.290;2023-02-04T05:29:39;100609.13;;;3.70;100.00
43153;BME280;28756;49.064;9.290;2023-02-04T05:32:05;100613.41;;;3.70;100.00
43153;BME280;28756;49.064;9.290;2023-02-04T05:34:31;100618.56;;;3.70;100.00
43153;BME280;28756;49.064;9.290;2023-02-04T05:36:56;100609.13;;;3.70;100.00
43153;BME280;28756;49.064;9.290;2023-02-04T05:39:22;100611.69;;;3.75;100.00
43153;BME280;28756;49.064;9.290;2023-02-04T05:41:48;100615.94;;;3.82;100.00
43153;BME280;28756;49.064;9.290;2023-02-04T05:44:14;100609.06;;;3.87;100.00
43153;BME280;28756;49.064;9.290;2023-02-04T05:46:39;100612.50;;;3.89;100.00
43153;BME280;28756;49.064;9.290;2023-02-04T05:49:05;100621.94;;;3.92;100.00
43153;BME280;28756;49.064;9.290;2023-02-04T05:51:32;100620.22;;;3.88;100.00
43153;BME280;28756;49.064;9.290;2023-02-04T05:53:57;100622.81;;;3.85;100.00
43153;BME280;28756;49.064;9.290;2023-02-04T05:56:23;100622.81;;;3.80;100.00
43153;BME280;28756;49.064;9.290;2023-02-04T05:58:50;100626.28;;;3.71;100.00
43153;BME280;28756;49.064;9.290;2023-02-04T06:01:16;100633.13;;;3.64;100.00
43153;BME280;28756;49.064;9.290;2023-02-04T06:03:41;100640.00;;;3.56;100.00
43153;BME280;28756;49.064;9.290;2023-02-04T06:06:07;100651.16;;;3.47;100.00
43153;BME280;28756;49.064;9.290;2023-02-04T06:08:33;100656.31;;;3.37;100.00
43153;BME280;28756;49.064;9.290;2023-02-04T06:10:59;100664.03;;;3.30;100.00
43153;BME280;28756;49.064;9.290;2023-02-04T06:13:24;100669.16;;;3.23;100.00
43153;BME280;28756;49.064;9.290;2023-02-04T06:15:50;100672.56;;;3.08;100.00
43153;BME280;28756;49.064;9.290;2023-02-04T06:18:16;100666.53;;;3.04;100.00
43153;BME280;28756;49.064;9.290;2023-02-04T06:20:42;100673.38;;;2.99;100.00
43153;BME280;28756;49.064;9.290;2023-02-04T06:23:07;100675.09;;;2.94;100.00
43153;BME280;28756;49.064;9.290;2023-02-04T06:25:33;100678.44;;;2.65;100.00
43153;BME280;28756;49.064;9.290;2023-02-04T06:27:59;100687.81;;;2.53;100.00
43153;BME280;28756;49.064;9.290;2023-02-04T06:30:24;100693.75;;;2.40;100.00
43153;BME280;28756;49.064;9.290;2023-02-04T06:32:50;100689.38;;;2.27;100.00
43153;BME280;28756;49.064;9.290;2023-02-04T06:35:16;100689.38;;;2.19;100.00
43153;BME280;28756;49.064;9.290;2023-02-04T06:37:42;100685.03;;;2.07;100.00
43153;BME280;28756;49.064;9.290;2023-02-04T06:40:10;100688.38;;;1.97;100.00
43153;BME280;28756;49.064;9.290;2023-02-04T06:42:35;100690.06;;;1.93;100.00
43153;BME280;28756;49.064;9.290;2023-02-04T06:45:02;100675.50;;;1.91;100.00
43153;BME280;28756;49.064;9.290;2023-02-04T06:47:28;100684.06;;;1.94;100.00
43153;BME280;28756;49.064;9.290;2023-02-04T06:49:54;100695.22;;;1.99;100.00
43153;BME280;28756;49.064;9.290;2023-02-04T06:52:19;100688.44;;;2.06;100.00
43153;BME280;28756;49.064;9.290;2023-02-04T06:54:45;100692.75;;;2.12;100.00
43153;BME280;28756;49.064;9.290;2023-02-04T06:57:11;100702.13;;;2.08;100.00
43153;BME280;28756;49.064;9.290;2023-02-04T06:59:38;100710.72;;;2.13;100.00
43153;BME280;28756;49.064;9.290;2023-02-04T07:02:06;100721.84;;;2.18;100.00
43153;BME280;28756;49.064;9.290;2023-02-04T07:04:33;100722.72;;;2.22;100.00
43153;BME280;28756;49.064;9.290;2023-02-04T07:06:59;100727.06;;;2.26;100.00
43153;BME280;28756;49.064;9.290;2023-02-04T07:09:25;100734.94;;;2.62;100.00
43153;BME280;28756;49.064;9.290;2023-02-04T07:11:51;100739.28;;;2.74;100.00
43153;BME280;28756;49.064;9.290;2023-02-04T07:14:18;100743.47;;;2.55;100.00
43153;BME280;28756;49.064;9.290;2023-02-04T07:16:44;100756.16;;;2.33;100.00
43153;BME280;28756;49.064;9.290;2023-02-04T07:19:10;100763.00;;;2.25;100.00
43153;BME280;28756;49.064;9.290;2023-02-04T07:21:36;100761.25;;;2.20;100.00
43153;BME280;28756;49.064;9.290;2023-02-04T07:24:01;100764.69;;;2.24;100.00
43153;BME280;28756;49.064;9.290;2023-02-04T07:26:27;100772.38;;;2.24;100.00
43153;BME280;28756;49.064;9.290;2023-02-04T07:28:53;100763.88;;;2.28;100.00
43153;BME280;28756;49.064;9.290;2023-02-04T07:31:18;100771.56;;;2.30;100.00
43153;BME280;28756;49.064;9.290;2023-02-04T07:33:44;100777.63;;;2.36;100.00
43153;BME280;28756;49.064;9.290;2023-02-04T07:36:10;100784.44;;;2.36;100.00
43153;BME280;28756;49.064;9.290;2023-02-04T07:38:36;100780.19;;;2.36;100.00
43153;BME280;28756;49.064;9.290;2023-02-04T07:41:02;100769.13;;;2.50;100.00
43153;BME280;28756;49.064;9.290;2023-02-04T07:43:27;100776.03;;;2.62;100.00
43153;BME280;28756;49.064;9.290;2023-02-04T07:45:53;100782.91;;;2.64;100.00
43153;BME280;28756;49.064;9.290;2023-02-04T07:48:19;100782.91;;;2.63;100.00
43153;BME280;28756;49.064;9.290;2023-02-04T07:50:44;100787.19;;;2.64;100.00
43153;BME280;28756;49.064;9.290;2023-02-04T07:53:10;100801.66;;;2.54;100.00
43153;BME280;28756;49.064;9.290;2023-02-04T07:55:36;100803.31;;;2.44;100.00
43153;BME280;28756;49.064;9.290;2023-02-04T07:58:02;100807.63;;;2.47;100.00
43153;BME280;28756;49.064;9.290;2023-02-04T08:00:28;100810.09;;;2.33;100.00
43153;BME280;28756;49.064;9.290;2023-02-04T08:02:55;100799.72;;;2.17;100.00
43153;BME280;28756;49.064;9.290;2023-02-04T08:05:21;100813.41;;;2.19;100.00
43153;BME280;28756;49.064;9.290;2023-02-04T08:07:47;100814.34;;;2.25;100.00
43153;BME280;28756;49.064;9.290;2023-02-04T08:10:13;100819.50;;;2.31;100.00
43153;BME280;28756;49.064;9.290;2023-02-04T08:12:38;100821.25;;;2.36;100.00
43153;BME280;28756;49.064;9.290;2023-02-04T08:15:05;100826.44;;;2.46;100.00
43153;BME280;28756;49.064;9.290;2023-02-04T08:17:34;100829.88;;;2.48;100.00
43153;BME280;28756;49.064;9.290;2023-02-04T08:20:00;100835.91;;;2.51;100.00
43153;BME280;28756;49.064;9.290;2023-02-04T08:22:26;100834.22;;;2.57;100.00
43153;BME280;28756;49.064;9.290;2023-02-04T08:24:52;100837.69;;;2.63;100.00
43153;BME280;28756;49.064;9.290;2023-02-04T08:27:17;100842.84;;;2.66;100.00
43153;BME280;28756;49.064;9.290;2023-02-04T08:29:43;100841.16;;;2.70;100.00
43153;BME280;28756;49.064;9.290;2023-02-04T08:32:09;100844.59;;;2.72;100.00
43153;BME280;28756;49.064;9.290;2023-02-04T08:34:35;100843.69;;;2.68;100.00
43153;BME280;28756;49.064;9.290;2023-02-04T08:37:01;100842.78;;;2.57;100.00
43153;BME280;28756;49.064;9.290;2023-02-04T08:39:27;100841.09;;;2.61;100.00
43153;BME280;28756;49.064;9.290;2023-02-04T08:41:54;100851.41;;;2.65;100.00
43153;BME280;28756;49.064;9.290;2023-02-04T08:44:19;100848.84;;;2.65;100.00
43153;BME280;28756;49.064;9.290;2023-02-04T08:46:45;100851.41;;;2.68;100.00
43153;BME280;28756;49.064;9.290;2023-02-04T08:49:11;100850.63;;;2.77;100.00
43153;BME280;28756;49.064;9.290;2023-02-04T08:51:36;100866.94;;;2.89;100.00
43153;BME280;28756;49.064;9.290;2023-02-04T08:54:02;100866.97;;;2.90;100.00
43153;BME280;28756;49.064;9.290;2023-02-04T08:56:28;100865.31;;;2.98;100.00
43153;BME280;28756;49.064;9.290;2023-02-04T08:58:54;100864.47;;;2.99;100.00
43153;BME280;28756;49.064;9.290;2023-02-04T09:01:19;100864.47;;;3.03;100.00
43153;BME280;28756;49.064;9.290;2023-02-04T09:03:45;100873.06;;;3.11;100.00
43153;BME280;28756;49.064;9.290;2023-02-04T09:06:11;100866.22;;;3.14;100.00
43153;BME280;28756;49.064;9.290;2023-02-04T09:08:37;100869.69;;;3.21;100.00
43153;BME280;28756;49.064;9.290;2023-02-04T09:11:03;100871.47;;;3.33;100.00
43153;BME280;28756;49.064;9.290;2023-02-04T09:13:30;100881.75;;;3.33;100.00
43153;BME280;28756;49.064;9.290;2023-02-04T09:15:57;100885.19;;;3.37;100.00
43153;BME280;28756;49.064;9.290;2023-02-04T09:18:23;100886.88;;;3.33;100.00
43153;BME280;28756;49.064;9.290;2023-02-04T09:20:51;100880.91;;;3.39;100.00
43153;BME280;28756;49.064;9.290;2023-02-04T09:23:17;100883.50;;;3.45;100.00
43153;BME280;28756;49.064;9.290;2023-02-04T09:25:44;100893.84;;;3.59;100.00
43153;BME280;28756;49.064;9.290;2023-02-04T09:28:11;100894.72;;;3.66;100.00
43153;BME280;28756;49.064;9.290;2023-02-04T09:30:38;100893.03;;;3.80;100.00
43153;BME280;28756;49.064;9.290;2023-02-04T09:33:05;100888.75;;;3.93;100.00
43153;BME280;28756;49.064;9.290;2023-02-04T09:35:30;100896.50;;;3.99;100.00
43153;BME280;28756;49.064;9.290;2023-02-04T09:37:56;100903.38;;;4.08;100.00
43153;BME280;28756;49.064;9.290;2023-02-04T09:40:22;100907.69;;;4.09;100.00
43153;BME280;28756;49.064;9.290;2023-02-04T09:42:51;100908.50;;;3.94;100.00
43153;BME280;28756;49.064;9.290;2023-02-04T09:45:25;100905.06;;;3.97;100.00
43153;BME280;28756;49.064;9.290;2023-02-04T09:47:53;100909.34;;;3.88;100.00
43153;BME280;28756;49.064;9.290;2023-02-04T09:50:23;100913.69;;;4.03;100.00
43153;BME280;28756;49.064;9.290;2023-02-04T09:52:53;100917.97;;;4.06;100.00
43153;BME280;28756;49.064;9.290;2023-02-04T09:55:24;100907.69;;;4.31;100.00
43153;BME280;28756;49.064;9.290;2023-02-04T09:57:51;100904.25;;;4.49;100.00
43153;BME280;28756;49.064;9.290;2023-02-04T10:00:24;100893.09;;;4.70;100.00
43153;BME280;28756;49.064;9.290;2023-02-04T10:02:51;100896.47;;;4.94;100.00
43153;BME280;28756;49.064;9.290;2023-02-04T10:05:28;100893.00;;;5.07;100.00
43153;BME280;28756;49.064;9.290;2023-02-04T10:07:54;100880.03;;;5.26;100.00
43153;BME280;28756;49.064;9.290;2023-02-04T10:10:22;100878.28;;;5.31;100.00
43153;BME280;28756;49.064;9.290;2023-02-04T10:12:57;100867.97;;;5.34;100.00
43153;BME280;28756;49.064;9.290;2023-02-04T10:15:24;100867.94;;;5.45;100.00
43153;BME280;28756;49.064;9.290;2023-02-04T10:18:04;100866.19;;;5.48;100.00
43153;BME280;28756;49.064;9.290;2023-02-04T10:20:32;100856.63;;;5.63;100.00
43153;BME280;28756;49.064;9.290;2023-02-04T10:22:57;100863.81;;;6.45;100.00
43153;BME280;28756;49.064;9.290;2023-02-04T10:25:25;100858.53;;;7.35;100.00
43153;BME280;28756;49.064;9.290;2023-02-04T10:27:58;100846.03;;;7.01;100.00
43153;BME280;28756;49.064;9.290;2023-02-04T10:30:31;100842.53;;;7.69;100.00
43153;BME280;28756;49.064;9.290;2023-02-04T10:33:23;100845.34;;;8.13;100.00
43153;BME280;28756;49.064;9.290;2023-02-04T10:35:54;100839.75;;;7.21;100.00
43153;BME280;28756;49.064;9.290;2023-02-04T10:38:21;100841.13;;;8.06;100.00
43153;BME280;28756;49.064;9.290;2023-02-04T10:40:47;100842.84;;;8.07;100.00
43153;BME280;28756;49.064;9.290;2023-02-04T10:43:17;100843.75;;;7.45;100.00
43153;BME280;28756;49.064;9.290;2023-02-04T10:45:57;100834.50;;;7.86;100.00
43153;BME280;28756;49.064;9.290;2023-02-04T10:48:24;100815.53;;;8.86;100.00
43153;BME280;28756;49.064;9.290;2023-02-04T10:50:50;100822.53;;;9.66;100.00
43153;BME280;28756;49.064;9.290;2023-02-04T10:53:20;100820.75;;;9.28;100.00
43153;BME280;28756;49.064;9.290;2023-02-04T10:56:19;100837.78;;;7.41;100.00
43153;BME280;28756;49.064;9.290;2023-02-04T10:58:46;100845.78;;;6.39;100.00
43153;BME280;28756;49.064;9.290;2023-02-04T11:01:14;100859.66;;;6.30;100.00
43153;BME280;28756;49.064;9.290;2023-02-04T11:03:42;100858.25;;;5.84;100.00
43153;BME280;28756;49.064;9.290;2023-02-04T11:06:21;100847.31;;;6.60;100.00
43153;BME280;28756;49.064;9.290;2023-02-04T11:08:48;100846.03;;;7.01;100.00
43153;BME280;28756;49.064;9.290;2023-02-04T11:11:19;100847.19;;;6.74;100.00
43153;BME280;28756;49.064;9.290;2023-02-04T11:16:29;100843.16;;;6.45;100.00
43153;BME280;28756;49.064;9.290;2023-02-04T11:19:10;100839.53;;;6.64;100.00
43153;BME280;28756;49.064;9.290;2023-02-04T11:26:46;100840.88;;;6.09;100.00
43153;BME280;28756;49.064;9.290;2023-02-04T11:32:25;100840.78;;;6.22;100.00
43153;BME280;28756;49.064;9.290;2023-02-04T11:34:51;100847.88;;;5.89;100.00
43153;BME280;28756;49.064;9.290;2023-02-04T11:37:34;100853.91;;;5.84;100.00
43153;BME280;28756;49.064;9.290;2023-02-04T11:40:01;100854.91;;;5.68;100.00
43153;BME280;28756;49.064;9.290;2023-02-04T11:42:41;100848.81;;;5.78;100.00
43153;BME280;28756;49.064;9.290;2023-02-04T11:45:58;100844.53;;;5.76;100.00
43153;BME280;28756;49.064;9.290;2023-02-04T11:48:17;100853.13;;;5.75;100.00
43153;BME280;28756;49.064;9.290;2023-02-04T11:50:59;100844.56;;;5.69;100.00
43153;BME280;28756;49.064;9.290;2023-02-04T11:53:30;100847.19;;;5.63;100.00
43153;BME280;28756;49.064;9.290;2023-02-04T11:55:57;100847.19;;;5.57;100.00
43153;BME280;28756;49.064;9.290;2023-02-04T11:58:24;100845.44;;;5.65;100.00
43153;BME280;28756;49.064;9.290;2023-02-04T12:00:51;100854.03;;;5.64;100.00
43153;BME280;28756;49.064;9.290;2023-02-04T12:03:31;100847.06;;;5.80;100.00
43153;BME280;28756;49.064;9.290;2023-02-04T12:05:59;100856.38;;;6.05;100.00
43153;BME280;28756;49.064;9.290;2023-02-04T12:08:32;100862.47;;;5.99;100.00
43153;BME280;28756;49.064;9.290;2023-02-04T12:11:10;100864.22;;;5.89;100.00
43153;BME280;28756;49.064;9.290;2023-02-04T12:13:53;100864.97;;;6.11;100.00
43153;BME280;28756;49.064;9.290;2023-02-04T12:16:19;100862.38;;;6.08;100.00
43153;BME280;28756;49.064;9.290;2023-02-04T12:18:45;100860.44;;;6.38;100.00
43153;BME280;28756;49.064;9.290;2023-02-04T12:21:11;100871.72;;;6.31;100.00
43153;BME280;28756;49.064;9.290;2023-02-04T12:23:39;100862.13;;;6.39;100.00
43153;BME280;28756;49.064;9.290;2023-02-04T12:26:07;100866.56;;;6.25;100.00
43153;BME280;28756;49.064;9.290;2023-02-04T12:28:33;100866.59;;;6.20;100.00
43153;BME280;28756;49.064;9.290;2023-02-04T12:30:59;100877.94;;;6.02;100.00
43153;BME280;28756;49.064;9.290;2023-02-04T12:33:25;100869.34;;;6.00;100.00
43153;BME280;28756;49.064;9.290;2023-02-04T12:35:50;100863.28;;;6.04;100.00
43153;BME280;28756;49.064;9.290;2023-02-04T12:38:16;100862.44;;;6.04;100.00
43153;BME280;28756;49.064;9.290;2023-02-04T12:40:42;100864.13;;;6.08;100.00
43153;BME280;28756;49.064;9.290;2023-02-04T12:43:09;100862.47;;;5.99;100.00
43153;BME280;28756;49.064;9.290;2023-02-04T12:45:34;100862.44;;;6.05;100.00
43153;BME280;28756;49.064;9.290;2023-02-04T12:48:00;100861.56;;;5.98;100.00
43153;BME280;28756;49.064;9.290;2023-02-04T12:50:26;100855.53;;;6.07;100.00
43153;BME280;28756;49.064;9.290;2023-02-04T12:52:55;100862.34;;;6.19;100.00
43153;BME280;28756;49.064;9.290;2023-02-04T12:55:23;100866.72;;;6.06;100.00
43153;BME280;28756;49.064;9.290;2023-02-04T12:57:49;100858.13;;;6.01;100.00
43153;BME280;28756;49.064;9.290;2023-02-04T13:00:17;100867.59;;;5.97;100.00
43153;BME280;28756;49.064;9.290;2023-02-04T13:02:46;100858.97;;;6.05;100.00